sensor_id;sensor_type;location;lat;lon;timestamp;P1;durP1;ratioP1;P2;durP2;ratioP2
70549;SDS011;58101;48.658;2.328;2022-10-12T00:00:38;13.13;;;4.28;;
70549;SDS011;58101;48.658;2.328;2022-10-12T00:03:03;14.02;;;4.30;;
70549;SDS011;58101;48.658;2.328;2022-10-12T00:05:29;12.63;;;4.80;;
70549;SDS011;58101;48.658;2.328;2022-10-12T00:07:55;13.63;;;4.55;;
70549;SDS011;58101;48.658;2.328;2022-10-12T00:10:20;14.93;;;4.78;;
70549;SDS011;58101;48.658;2.328;2022-10-12T00:12:46;17.33;;;4.82;;
70549;SDS011;58101;48.658;2.328;2022-10-12T00:15:12;12.05;;;4.57;;
70549;SDS011;58101;48.658;2.328;2022-10-12T00:17:37;10.27;;;4.10;;
70549;SDS011;58101;48.658;2.328;2022-10-12T00:20:03;14.75;;;4.65;;
70549;SDS011;58101;48.658;2.328;2022-10-12T00:22:30;14.38;;;4.57;;
70549;SDS011;58101;48.658;2.328;2022-10-12T00:24:55;13.63;;;4.55;;
70549;SDS011;58101;48.658;2.328;2022-10-12T00:27:21;16.27;;;4.63;;
70549;SDS011;58101;48.658;2.328;2022-10-12T00:29:52;13.02;;;4.75;;
70549;SDS011;58101;48.658;2.328;2022-10-12T00:32:18;14.57;;;4.65;;
70549;SDS011;58101;48.658;2.328;2022-10-12T00:34:44;14.13;;;4.80;;
70549;SDS011;58101;48.658;2.328;2022-10-12T00:37:09;17.23;;;5.32;;
70549;SDS011;58101;48.658;2.328;2022-10-12T00:39:35;16.02;;;4.80;;
70549;SDS011;58101;48.658;2.328;2022-10-12T00:42:01;14.25;;;4.88;;
70549;SDS011;58101;48.658;2.328;2022-10-12T00:44:45;14.30;;;4.65;;
70549;SDS011;58101;48.658;2.328;2022-10-12T00:52:27;12.23;;;4.70;;
70549;SDS011;58101;48.658;2.328;2022-10-12T00:55:04;11.43;;;4.10;;
70549;SDS011;58101;48.658;2.328;2022-10-12T00:57:31;11.25;;;3.78;;
70549;SDS011;58101;48.658;2.328;2022-10-12T00:59:59;12.90;;;4.05;;
70549;SDS011;58101;48.658;2.328;2022-10-12T01:02:29;12.32;;;5.00;;
70549;SDS011;58101;48.658;2.328;2022-10-12T01:04:57;16.95;;;4.93;;
70549;SDS011;58101;48.658;2.328;2022-10-12T01:07:23;15.82;;;4.32;;
70549;SDS011;58101;48.658;2.328;2022-10-12T01:09:49;14.68;;;4.72;;
70549;SDS011;58101;48.658;2.328;2022-10-12T01:12:15;12.90;;;4.80;;
70549;SDS011;58101;48.658;2.328;2022-10-12T01:14:41;17.08;;;5.00;;
70549;SDS011;58101;48.658;2.328;2022-10-12T01:17:11;11.27;;;4.00;;
70549;SDS011;58101;48.658;2.328;2022-10-12T01:19:57;12.85;;;4.13;;
70549;SDS011;58101;48.658;2.328;2022-10-12T01:25:53;14.25;;;4.05;;
70549;SDS011;58101;48.658;2.328;2022-10-12T01:34:17;13.52;;;4.80;;
70549;SDS011;58101;48.658;2.328;2022-10-12T01:36:51;16.67;;;4.20;;
70549;SDS011;58101;48.658;2.328;2022-10-12T01:39:29;15.85;;;3.85;;
70549;SDS011;58101;48.658;2.328;2022-10-12T01:42:07;14.43;;;4.63;;
70549;SDS011;58101;48.658;2.328;2022-10-12T01:44:47;11.02;;;4.13;;
70549;SDS011;58101;48.658;2.328;2022-10-12T01:47:13;13.82;;;4.78;;
70549;SDS011;58101;48.658;2.328;2022-10-12T01:49:38;14.00;;;4.25;;
70549;SDS011;58101;48.658;2.328;2022-10-12T02:05:25;14.02;;;4.30;;
70549;SDS011;58101;48.658;2.328;2022-10-12T02:16:21;12.18;;;4.60;;
70549;SDS011;58101;48.658;2.328;2022-10-12T02:18:55;11.57;;;4.40;;
70549;SDS011;58101;48.658;2.328;2022-10-12T02:21:24;13.57;;;4.75;;
70549;SDS011;58101;48.658;2.328;2022-10-12T02:23:54;12.90;;;4.30;;
70549;SDS011;58101;48.658;2.328;2022-10-12T02:26:25;9.70;;;4.05;;
70549;SDS011;58101;48.658;2.328;2022-10-12T02:28:52;12.63;;;4.22;;
70549;SDS011;58101;48.658;2.328;2022-10-12T02:34:39;12.60;;;4.28;;
70549;SDS011;58101;48.658;2.328;2022-10-12T02:37:16;14.10;;;4.50;;
70549;SDS011;58101;48.658;2.328;2022-10-12T02:39:53;13.43;;;4.50;;
70549;SDS011;58101;48.658;2.328;2022-10-12T02:42:29;13.35;;;4.15;;
70549;SDS011;58101;48.658;2.328;2022-10-12T02:44:59;12.57;;;4.57;;
70549;SDS011;58101;48.658;2.328;2022-10-12T02:47:29;10.00;;;4.50;;
70549;SDS011;58101;48.658;2.328;2022-10-12T02:49:57;12.32;;;4.60;;
70549;SDS011;58101;48.658;2.328;2022-10-12T02:52:24;12.02;;;4.40;;
70549;SDS011;58101;48.658;2.328;2022-10-12T02:54:50;13.50;;;4.70;;
70549;SDS011;58101;48.658;2.328;2022-10-12T02:57:16;15.20;;;4.97;;
70549;SDS011;58101;48.658;2.328;2022-10-12T02:59:42;11.48;;;4.60;;
70549;SDS011;58101;48.658;2.328;2022-10-12T03:02:07;12.98;;;4.72;;
70549;SDS011;58101;48.658;2.328;2022-10-12T03:04:34;13.95;;;5.53;;
70549;SDS011;58101;48.658;2.328;2022-10-12T03:07:00;12.70;;;4.93;;
70549;SDS011;58101;48.658;2.328;2022-10-12T03:09:26;15.63;;;5.40;;
70549;SDS011;58101;48.658;2.328;2022-10-12T03:11:51;12.93;;;4.90;;
70549;SDS011;58101;48.658;2.328;2022-10-12T03:14:17;12.50;;;4.70;;
70549;SDS011;58101;48.658;2.328;2022-10-12T03:16:45;12.52;;;4.53;;
70549;SDS011;58101;48.658;2.328;2022-10-12T03:19:12;14.02;;;4.82;;
70549;SDS011;58101;48.658;2.328;2022-10-12T03:21:37;13.57;;;5.05;;
70549;SDS011;58101;48.658;2.328;2022-10-12T03:24:03;12.90;;;5.22;;
70549;SDS011;58101;48.658;2.328;2022-10-12T03:26:29;15.30;;;5.07;;
70549;SDS011;58101;48.658;2.328;2022-10-12T03:28:55;14.68;;;4.82;;
70549;SDS011;58101;48.658;2.328;2022-10-12T03:31:20;13.15;;;4.72;;
70549;SDS011;58101;48.658;2.328;2022-10-12T03:33:46;12.35;;;5.05;;
70549;SDS011;58101;48.658;2.328;2022-10-12T03:36:12;14.75;;;5.13;;
70549;SDS011;58101;48.658;2.328;2022-10-12T03:38:37;13.82;;;5.18;;
70549;SDS011;58101;48.658;2.328;2022-10-12T03:41:03;11.55;;;4.63;;
70549;SDS011;58101;48.658;2.328;2022-10-12T03:43:29;14.02;;;5.03;;
70549;SDS011;58101;48.658;2.328;2022-10-12T03:45:54;13.93;;;4.70;;
70549;SDS011;58101;48.658;2.328;2022-10-12T03:48:20;13.52;;;4.90;;
70549;SDS011;58101;48.658;2.328;2022-10-12T03:50:49;15.50;;;5.05;;
70549;SDS011;58101;48.658;2.328;2022-10-12T03:53:16;12.57;;;4.50;;
70549;SDS011;58101;48.658;2.328;2022-10-12T03:55:42;14.77;;;4.60;;
70549;SDS011;58101;48.658;2.328;2022-10-12T03:58:08;13.80;;;5.15;;
70549;SDS011;58101;48.658;2.328;2022-10-12T04:00:34;12.20;;;4.82;;
70549;SDS011;58101;48.658;2.328;2022-10-12T04:02:59;10.85;;;4.38;;
70549;SDS011;58101;48.658;2.328;2022-10-12T04:05:26;13.57;;;4.60;;
70549;SDS011;58101;48.658;2.328;2022-10-12T04:07:52;14.13;;;5.00;;
70549;SDS011;58101;48.658;2.328;2022-10-12T04:10:18;14.52;;;4.55;;
70549;SDS011;58101;48.658;2.328;2022-10-12T04:12:44;14.75;;;4.60;;
70549;SDS011;58101;48.658;2.328;2022-10-12T04:15:10;11.77;;;4.65;;
70549;SDS011;58101;48.658;2.328;2022-10-12T04:17:36;13.05;;;4.47;;
70549;SDS011;58101;48.658;2.328;2022-10-12T04:20:02;14.77;;;5.80;;
70549;SDS011;58101;48.658;2.328;2022-10-12T04:22:28;11.65;;;4.53;;
70549;SDS011;58101;48.658;2.328;2022-10-12T04:24:53;11.93;;;4.55;;
70549;SDS011;58101;48.658;2.328;2022-10-12T04:27:19;15.38;;;4.55;;
70549;SDS011;58101;48.658;2.328;2022-10-12T04:29:44;13.63;;;4.60;;
70549;SDS011;58101;48.658;2.328;2022-10-12T04:32:10;13.40;;;4.80;;
70549;SDS011;58101;48.658;2.328;2022-10-12T04:34:36;11.93;;;4.50;;
70549;SDS011;58101;48.658;2.328;2022-10-12T04:37:01;12.13;;;4.35;;
70549;SDS011;58101;48.658;2.328;2022-10-12T04:39:28;14.00;;;4.68;;
70549;SDS011;58101;48.658;2.328;2022-10-12T04:41:54;12.95;;;4.72;;
70549;SDS011;58101;48.658;2.328;2022-10-12T04:44:20;12.90;;;4.45;;
70549;SDS011;58101;48.658;2.328;2022-10-12T04:46:46;12.50;;;4.18;;
70549;SDS011;58101;48.658;2.328;2022-10-12T04:49:12;13.93;;;4.45;;
70549;SDS011;58101;48.658;2.328;2022-10-12T04:51:37;12.77;;;5.10;;
70549;SDS011;58101;48.658;2.328;2022-10-12T04:54:03;13.52;;;4.82;;
70549;SDS011;58101;48.658;2.328;2022-10-12T04:56:29;12.98;;;4.28;;
70549;SDS011;58101;48.658;2.328;2022-10-12T04:58:54;13.75;;;5.47;;
70549;SDS011;58101;48.658;2.328;2022-10-12T05:01:20;12.50;;;4.22;;
70549;SDS011;58101;48.658;2.328;2022-10-12T05:03:46;11.13;;;4.30;;
70549;SDS011;58101;48.658;2.328;2022-10-12T05:06:11;11.32;;;4.25;;
70549;SDS011;58101;48.658;2.328;2022-10-12T05:08:37;13.23;;;4.95;;
70549;SDS011;58101;48.658;2.328;2022-10-12T05:11:03;13.23;;;4.70;;
70549;SDS011;58101;48.658;2.328;2022-10-12T05:13:29;11.65;;;4.03;;
70549;SDS011;58101;48.658;2.328;2022-10-12T05:15:54;11.30;;;4.50;;
70549;SDS011;58101;48.658;2.328;2022-10-12T05:18:20;10.88;;;4.65;;
70549;SDS011;58101;48.658;2.328;2022-10-12T05:20:46;10.77;;;4.57;;
70549;SDS011;58101;48.658;2.328;2022-10-12T05:23:12;11.15;;;4.10;;
70549;SDS011;58101;48.658;2.328;2022-10-12T05:25:37;15.38;;;4.90;;
70549;SDS011;58101;48.658;2.328;2022-10-12T05:28:04;17.40;;;5.40;;
70549;SDS011;58101;48.658;2.328;2022-10-12T05:30:30;11.25;;;4.40;;
70549;SDS011;58101;48.658;2.328;2022-10-12T05:32:56;12.00;;;4.35;;
70549;SDS011;58101;48.658;2.328;2022-10-12T05:35:22;15.27;;;4.45;;
70549;SDS011;58101;48.658;2.328;2022-10-12T05:37:48;11.52;;;4.20;;
70549;SDS011;58101;48.658;2.328;2022-10-12T05:40:13;16.08;;;4.35;;
70549;SDS011;58101;48.658;2.328;2022-10-12T05:42:39;12.88;;;4.85;;
70549;SDS011;58101;48.658;2.328;2022-10-12T05:45:05;10.10;;;3.92;;
70549;SDS011;58101;48.658;2.328;2022-10-12T05:47:40;10.75;;;3.92;;
70549;SDS011;58101;48.658;2.328;2022-10-12T05:50:06;12.98;;;4.43;;
70549;SDS011;58101;48.658;2.328;2022-10-12T05:52:47;11.70;;;4.25;;
70549;SDS011;58101;48.658;2.328;2022-10-12T05:55:13;11.52;;;4.00;;
70549;SDS011;58101;48.658;2.328;2022-10-12T05:57:38;14.02;;;4.43;;
70549;SDS011;58101;48.658;2.328;2022-10-12T06:00:05;12.43;;;4.43;;
70549;SDS011;58101;48.658;2.328;2022-10-12T06:02:32;12.70;;;4.50;;
70549;SDS011;58101;48.658;2.328;2022-10-12T06:05:02;11.10;;;4.22;;
70549;SDS011;58101;48.658;2.328;2022-10-12T06:07:28;12.38;;;4.20;;
70549;SDS011;58101;48.658;2.328;2022-10-12T06:09:53;12.88;;;4.20;;
70549;SDS011;58101;48.658;2.328;2022-10-12T06:12:24;11.18;;;4.30;;
70549;SDS011;58101;48.658;2.328;2022-10-12T06:14:50;11.27;;;4.03;;
70549;SDS011;58101;48.658;2.328;2022-10-12T06:17:16;12.73;;;4.35;;
70549;SDS011;58101;48.658;2.328;2022-10-12T06:19:42;11.40;;;4.63;;
70549;SDS011;58101;48.658;2.328;2022-10-12T06:22:07;12.10;;;4.18;;
70549;SDS011;58101;48.658;2.328;2022-10-12T06:24:33;9.52;;;4.05;;
70549;SDS011;58101;48.658;2.328;2022-10-12T06:26:59;11.02;;;4.18;;
70549;SDS011;58101;48.658;2.328;2022-10-12T06:29:24;13.55;;;4.25;;
70549;SDS011;58101;48.658;2.328;2022-10-12T06:31:50;13.05;;;4.65;;
70549;SDS011;58101;48.658;2.328;2022-10-12T06:34:16;12.73;;;5.18;;
70549;SDS011;58101;48.658;2.328;2022-10-12T06:36:42;14.35;;;4.97;;
70549;SDS011;58101;48.658;2.328;2022-10-12T06:39:08;9.85;;;4.47;;
70549;SDS011;58101;48.658;2.328;2022-10-12T06:41:34;12.48;;;4.68;;
70549;SDS011;58101;48.658;2.328;2022-10-12T06:44:00;12.30;;;4.25;;
70549;SDS011;58101;48.658;2.328;2022-10-12T06:46:25;14.65;;;4.40;;
70549;SDS011;58101;48.658;2.328;2022-10-12T06:48:51;12.65;;;4.55;;
70549;SDS011;58101;48.658;2.328;2022-10-12T06:51:17;13.65;;;4.30;;
70549;SDS011;58101;48.658;2.328;2022-10-12T06:53:43;14.63;;;4.05;;
70549;SDS011;58101;48.658;2.328;2022-10-12T06:56:08;10.32;;;4.10;;
70549;SDS011;58101;48.658;2.328;2022-10-12T06:58:35;14.90;;;4.30;;
70549;SDS011;58101;48.658;2.328;2022-10-12T07:01:02;11.35;;;4.13;;
70549;SDS011;58101;48.658;2.328;2022-10-12T07:03:28;9.52;;;4.40;;
70549;SDS011;58101;48.658;2.328;2022-10-12T07:05:54;12.82;;;4.45;;
70549;SDS011;58101;48.658;2.328;2022-10-12T07:08:19;17.52;;;4.40;;
70549;SDS011;58101;48.658;2.328;2022-10-12T07:10:45;19.25;;;4.68;;
70549;SDS011;58101;48.658;2.328;2022-10-12T07:13:11;12.75;;;5.00;;
70549;SDS011;58101;48.658;2.328;2022-10-12T07:15:37;15.18;;;4.38;;
70549;SDS011;58101;48.658;2.328;2022-10-12T07:18:02;12.73;;;4.68;;
70549;SDS011;58101;48.658;2.328;2022-10-12T07:20:28;15.60;;;4.72;;
70549;SDS011;58101;48.658;2.328;2022-10-12T07:22:53;14.27;;;4.63;;
70549;SDS011;58101;48.658;2.328;2022-10-12T07:25:19;14.65;;;4.35;;
70549;SDS011;58101;48.658;2.328;2022-10-12T07:27:46;13.00;;;4.45;;
70549;SDS011;58101;48.658;2.328;2022-10-12T07:30:12;11.93;;;3.83;;
70549;SDS011;58101;48.658;2.328;2022-10-12T07:32:38;13.30;;;4.70;;
70549;SDS011;58101;48.658;2.328;2022-10-12T07:35:04;13.95;;;4.40;;
70549;SDS011;58101;48.658;2.328;2022-10-12T07:37:30;15.02;;;4.78;;
70549;SDS011;58101;48.658;2.328;2022-10-12T07:39:58;13.18;;;4.38;;
70549;SDS011;58101;48.658;2.328;2022-10-12T07:42:23;17.08;;;4.22;;
70549;SDS011;58101;48.658;2.328;2022-10-12T07:44:49;11.57;;;3.85;;
70549;SDS011;58101;48.658;2.328;2022-10-12T07:47:14;11.85;;;4.25;;
70549;SDS011;58101;48.658;2.328;2022-10-12T07:49:41;13.10;;;4.47;;
70549;SDS011;58101;48.658;2.328;2022-10-12T07:52:07;12.32;;;4.25;;
70549;SDS011;58101;48.658;2.328;2022-10-12T07:54:32;13.18;;;4.55;;
70549;SDS011;58101;48.658;2.328;2022-10-12T07:56:58;11.95;;;4.28;;
70549;SDS011;58101;48.658;2.328;2022-10-12T07:59:24;13.98;;;4.25;;
70549;SDS011;58101;48.658;2.328;2022-10-12T08:01:49;14.93;;;4.93;;
70549;SDS011;58101;48.658;2.328;2022-10-12T08:04:15;10.75;;;4.43;;
70549;SDS011;58101;48.658;2.328;2022-10-12T08:06:41;12.77;;;4.40;;
70549;SDS011;58101;48.658;2.328;2022-10-12T08:09:10;15.15;;;4.93;;
70549;SDS011;58101;48.658;2.328;2022-10-12T08:11:37;12.13;;;5.40;;
70549;SDS011;58101;48.658;2.328;2022-10-12T08:14:08;11.30;;;4.80;;
70549;SDS011;58101;48.658;2.328;2022-10-12T08:16:38;13.60;;;4.95;;
70549;SDS011;58101;48.658;2.328;2022-10-12T08:19:05;15.32;;;5.20;;
70549;SDS011;58101;48.658;2.328;2022-10-12T08:21:30;12.15;;;5.20;;
70549;SDS011;58101;48.658;2.328;2022-10-12T08:23:56;14.98;;;5.93;;
70549;SDS011;58101;48.658;2.328;2022-10-12T08:26:22;16.10;;;5.18;;
70549;SDS011;58101;48.658;2.328;2022-10-12T08:31:14;12.65;;;5.45;;
70549;SDS011;58101;48.658;2.328;2022-10-12T08:33:41;13.98;;;5.20;;
70549;SDS011;58101;48.658;2.328;2022-10-12T08:36:07;15.98;;;5.35;;
70549;SDS011;58101;48.658;2.328;2022-10-12T08:38:35;16.33;;;5.78;;
70549;SDS011;58101;48.658;2.328;2022-10-12T08:41:13;14.50;;;5.88;;
70549;SDS011;58101;48.658;2.328;2022-10-12T08:43:52;13.60;;;6.22;;
70549;SDS011;58101;48.658;2.328;2022-10-12T08:46:30;16.48;;;6.32;;
70549;SDS011;58101;48.658;2.328;2022-10-12T08:51:46;15.73;;;6.18;;
70549;SDS011;58101;48.658;2.328;2022-10-12T08:54:12;16.00;;;6.57;;
70549;SDS011;58101;48.658;2.328;2022-10-12T08:56:40;14.80;;;6.63;;
70549;SDS011;58101;48.658;2.328;2022-10-12T08:59:13;16.67;;;7.20;;
70549;SDS011;58101;48.658;2.328;2022-10-12T09:15:26;14.65;;;6.47;;
70549;SDS011;58101;48.658;2.328;2022-10-12T09:17:58;17.60;;;6.53;;
70549;SDS011;58101;48.658;2.328;2022-10-12T09:20:30;20.25;;;6.90;;
70549;SDS011;58101;48.658;2.328;2022-10-12T09:23:14;20.00;;;8.80;;
70549;SDS011;58101;48.658;2.328;2022-10-12T09:25:44;17.52;;;7.07;;
70549;SDS011;58101;48.658;2.328;2022-10-12T09:28:15;21.90;;;8.32;;
70549;SDS011;58101;48.658;2.328;2022-10-12T09:33:40;17.35;;;6.90;;
70549;SDS011;58101;48.658;2.328;2022-10-12T09:36:18;15.50;;;6.70;;
70549;SDS011;58101;48.658;2.328;2022-10-12T09:38:45;17.15;;;5.97;;
70549;SDS011;58101;48.658;2.328;2022-10-12T09:41:19;16.73;;;6.30;;
70549;SDS011;58101;48.658;2.328;2022-10-12T09:43:52;18.42;;;6.78;;
70549;SDS011;58101;48.658;2.328;2022-10-12T09:49:06;17.77;;;6.20;;
70549;SDS011;58101;48.658;2.328;2022-10-12T09:51:32;18.30;;;6.88;;
70549;SDS011;58101;48.658;2.328;2022-10-12T09:53:59;17.08;;;5.75;;
70549;SDS011;58101;48.658;2.328;2022-10-12T09:59:23;16.48;;;6.18;;
70549;SDS011;58101;48.658;2.328;2022-10-12T10:04:35;15.75;;;5.55;;
70549;SDS011;58101;48.658;2.328;2022-10-12T10:09:45;13.95;;;5.10;;
70549;SDS011;58101;48.658;2.328;2022-10-12T10:14:49;14.48;;;4.88;;
70549;SDS011;58101;48.658;2.328;2022-10-12T10:17:21;14.52;;;4.75;;
70549;SDS011;58101;48.658;2.328;2022-10-12T10:19:59;15.05;;;4.88;;
70549;SDS011;58101;48.658;2.328;2022-10-12T10:22:27;15.13;;;5.43;;
70549;SDS011;58101;48.658;2.328;2022-10-12T10:24:57;14.52;;;5.10;;
70549;SDS011;58101;48.658;2.328;2022-10-12T10:30:08;13.68;;;5.18;;
70549;SDS011;58101;48.658;2.328;2022-10-12T10:32:39;13.63;;;5.43;;
70549;SDS011;58101;48.658;2.328;2022-10-12T10:37:58;11.32;;;5.18;;
70549;SDS011;58101;48.658;2.328;2022-10-12T10:40:28;14.52;;;5.20;;
70549;SDS011;58101;48.658;2.328;2022-10-12T10:42:57;13.23;;;5.45;;
70549;SDS011;58101;48.658;2.328;2022-10-12T10:45:35;14.60;;;5.05;;
70549;SDS011;58101;48.658;2.328;2022-10-12T10:48:26;13.48;;;4.90;;
70549;SDS011;58101;48.658;2.328;2022-10-12T10:51:04;12.50;;;4.70;;
70549;SDS011;58101;48.658;2.328;2022-10-12T10:53:49;13.48;;;4.75;;
70549;SDS011;58101;48.658;2.328;2022-10-12T10:56:25;12.95;;;4.88;;
70549;SDS011;58101;48.658;2.328;2022-10-12T10:58:56;12.07;;;4.80;;
70549;SDS011;58101;48.658;2.328;2022-10-12T11:01:33;10.85;;;4.47;;
70549;SDS011;58101;48.658;2.328;2022-10-12T11:04:38;12.95;;;4.35;;
70549;SDS011;58101;48.658;2.328;2022-10-12T11:07:00;20.88;;;4.95;;
70549;SDS011;58101;48.658;2.328;2022-10-12T11:12:06;12.18;;;4.13;;
70549;SDS011;58101;48.658;2.328;2022-10-12T11:14:43;10.98;;;3.78;;
70549;SDS011;58101;48.658;2.328;2022-10-12T11:17:17;12.32;;;4.00;;
70549;SDS011;58101;48.658;2.328;2022-10-12T11:22:35;10.80;;;3.50;;
70549;SDS011;58101;48.658;2.328;2022-10-12T11:27:44;10.27;;;3.92;;
70549;SDS011;58101;48.658;2.328;2022-10-12T11:30:14;10.43;;;3.22;;
70549;SDS011;58101;48.658;2.328;2022-10-12T11:35:30;10.43;;;3.50;;
70549;SDS011;58101;48.658;2.328;2022-10-12T11:38:05;12.52;;;3.28;;
70549;SDS011;58101;48.658;2.328;2022-10-12T11:40:39;11.85;;;5.10;;
70549;SDS011;58101;48.658;2.328;2022-10-12T11:43:29;11.57;;;3.20;;
70549;SDS011;58101;48.658;2.328;2022-10-12T11:46:00;9.93;;;3.33;;
70549;SDS011;58101;48.658;2.328;2022-10-12T11:48:39;11.85;;;3.30;;
70549;SDS011;58101;48.658;2.328;2022-10-12T11:51:11;12.93;;;3.78;;
70549;SDS011;58101;48.658;2.328;2022-10-12T11:53:39;11.35;;;3.40;;
70549;SDS011;58101;48.658;2.328;2022-10-12T11:56:26;11.40;;;3.38;;
70549;SDS011;58101;48.658;2.328;2022-10-12T11:59:02;12.25;;;3.70;;
70549;SDS011;58101;48.658;2.328;2022-10-12T12:01:38;12.00;;;3.22;;
70549;SDS011;58101;48.658;2.328;2022-10-12T12:06:59;8.73;;;3.60;;
70549;SDS011;58101;48.658;2.328;2022-10-12T12:15:39;11.80;;;3.20;;
70549;SDS011;58101;48.658;2.328;2022-10-12T12:23:19;11.70;;;3.30;;
70549;SDS011;58101;48.658;2.328;2022-10-12T12:28:36;9.13;;;2.60;;
70549;SDS011;58101;48.658;2.328;2022-10-12T12:31:06;8.45;;;2.88;;
70549;SDS011;58101;48.658;2.328;2022-10-12T12:36:40;8.93;;;2.90;;
70549;SDS011;58101;48.658;2.328;2022-10-12T12:42:04;14.43;;;4.18;;
70549;SDS011;58101;48.658;2.328;2022-10-12T12:52:04;9.82;;;2.83;;
70549;SDS011;58101;48.658;2.328;2022-10-12T12:54:39;9.48;;;2.97;;
70549;SDS011;58101;48.658;2.328;2022-10-12T13:00:23;8.75;;;2.90;;
70549;SDS011;58101;48.658;2.328;2022-10-12T13:03:04;9.65;;;3.15;;
70549;SDS011;58101;48.658;2.328;2022-10-12T13:06:08;11.45;;;2.90;;
70549;SDS011;58101;48.658;2.328;2022-10-12T13:19:53;10.35;;;3.65;;
70549;SDS011;58101;48.658;2.328;2022-10-12T13:22:37;11.95;;;3.50;;
70549;SDS011;58101;48.658;2.328;2022-10-12T13:25:04;11.75;;;3.47;;
70549;SDS011;58101;48.658;2.328;2022-10-12T13:27:45;10.60;;;2.83;;
70549;SDS011;58101;48.658;2.328;2022-10-12T13:30:21;9.90;;;2.70;;
70549;SDS011;58101;48.658;2.328;2022-10-12T13:33:33;10.32;;;3.20;;
70549;SDS011;58101;48.658;2.328;2022-10-12T13:38:25;10.40;;;3.13;;
70549;SDS011;58101;48.658;2.328;2022-10-12T13:43:41;16.05;;;3.50;;
70549;SDS011;58101;48.658;2.328;2022-10-12T13:49:08;11.88;;;3.67;;
70549;SDS011;58101;48.658;2.328;2022-10-12T13:51:38;10.27;;;3.40;;
70549;SDS011;58101;48.658;2.328;2022-10-12T13:54:20;12.10;;;3.70;;
70549;SDS011;58101;48.658;2.328;2022-10-12T13:56:55;13.05;;;3.20;;
70549;SDS011;58101;48.658;2.328;2022-10-12T13:59:24;8.63;;;3.47;;
70549;SDS011;58101;48.658;2.328;2022-10-12T14:04:30;12.98;;;2.92;;
70549;SDS011;58101;48.658;2.328;2022-10-12T14:07:02;13.00;;;3.38;;
70549;SDS011;58101;48.658;2.328;2022-10-12T14:10:15;10.20;;;3.45;;
70549;SDS011;58101;48.658;2.328;2022-10-12T14:12:26;9.20;;;3.50;;
70549;SDS011;58101;48.658;2.328;2022-10-12T14:14:54;12.45;;;3.33;;
70549;SDS011;58101;48.658;2.328;2022-10-12T14:17:21;9.88;;;2.90;;
70549;SDS011;58101;48.658;2.328;2022-10-12T14:19:48;8.45;;;2.78;;
70549;SDS011;58101;48.658;2.328;2022-10-12T14:22:23;9.73;;;3.08;;
70549;SDS011;58101;48.658;2.328;2022-10-12T14:24:50;13.43;;;5.88;;
70549;SDS011;58101;48.658;2.328;2022-10-12T14:27:21;14.23;;;2.95;;
70549;SDS011;58101;48.658;2.328;2022-10-12T14:29:51;13.77;;;3.83;;
70549;SDS011;58101;48.658;2.328;2022-10-12T14:35:02;10.63;;;2.67;;
70549;SDS011;58101;48.658;2.328;2022-10-12T14:37:49;10.02;;;3.28;;
70549;SDS011;58101;48.658;2.328;2022-10-12T14:40:23;9.07;;;2.45;;
70549;SDS011;58101;48.658;2.328;2022-10-12T14:43:19;8.88;;;2.58;;
70549;SDS011;58101;48.658;2.328;2022-10-12T14:45:48;8.10;;;2.42;;
70549;SDS011;58101;48.658;2.328;2022-10-12T14:48:16;8.35;;;2.53;;
70549;SDS011;58101;48.658;2.328;2022-10-12T14:50:44;9.57;;;2.53;;
70549;SDS011;58101;48.658;2.328;2022-10-12T14:53:10;7.85;;;2.60;;
70549;SDS011;58101;48.658;2.328;2022-10-12T14:55:38;8.80;;;2.47;;
70549;SDS011;58101;48.658;2.328;2022-10-12T14:58:05;10.77;;;2.50;;
70549;SDS011;58101;48.658;2.328;2022-10-12T15:00:34;11.27;;;2.60;;
70549;SDS011;58101;48.658;2.328;2022-10-12T15:03:01;7.05;;;2.13;;
70549;SDS011;58101;48.658;2.328;2022-10-12T15:05:28;7.97;;;2.67;;
70549;SDS011;58101;48.658;2.328;2022-10-12T15:07:58;8.65;;;2.50;;
70549;SDS011;58101;48.658;2.328;2022-10-12T15:12:51;9.73;;;2.20;;
70549;SDS011;58101;48.658;2.328;2022-10-12T15:17:52;9.35;;;2.80;;
70549;SDS011;58101;48.658;2.328;2022-10-12T15:20:18;10.52;;;2.83;;
70549;SDS011;58101;48.658;2.328;2022-10-12T15:22:44;9.02;;;2.50;;
70549;SDS011;58101;48.658;2.328;2022-10-12T15:28:03;8.43;;;2.60;;
70549;SDS011;58101;48.658;2.328;2022-10-12T15:32:55;9.95;;;2.55;;
70549;SDS011;58101;48.658;2.328;2022-10-12T15:35:24;9.70;;;3.38;;
70549;SDS011;58101;48.658;2.328;2022-10-12T15:37:52;9.80;;;3.03;;
70549;SDS011;58101;48.658;2.328;2022-10-12T15:40:22;8.93;;;2.80;;
70549;SDS011;58101;48.658;2.328;2022-10-12T15:42:48;10.00;;;4.13;;
70549;SDS011;58101;48.658;2.328;2022-10-12T15:45:18;10.88;;;3.50;;
70549;SDS011;58101;48.658;2.328;2022-10-12T15:47:48;10.77;;;3.08;;
70549;SDS011;58101;48.658;2.328;2022-10-12T15:50:15;9.38;;;2.90;;
70549;SDS011;58101;48.658;2.328;2022-10-12T15:52:43;8.65;;;3.47;;
70549;SDS011;58101;48.658;2.328;2022-10-12T15:55:19;7.72;;;2.67;;
70549;SDS011;58101;48.658;2.328;2022-10-12T15:57:49;12.10;;;3.25;;
70549;SDS011;58101;48.658;2.328;2022-10-12T16:00:16;11.00;;;4.60;;
70549;SDS011;58101;48.658;2.328;2022-10-12T16:02:44;8.55;;;2.67;;
70549;SDS011;58101;48.658;2.328;2022-10-12T16:05:43;9.35;;;2.97;;
70549;SDS011;58101;48.658;2.328;2022-10-12T16:08:03;8.73;;;2.80;;
70549;SDS011;58101;48.658;2.328;2022-10-12T16:10:34;8.90;;;2.35;;
70549;SDS011;58101;48.658;2.328;2022-10-12T16:13:02;9.15;;;2.60;;
70549;SDS011;58101;48.658;2.328;2022-10-12T16:15:29;10.65;;;2.85;;
70549;SDS011;58101;48.658;2.328;2022-10-12T16:17:56;9.63;;;2.67;;
70549;SDS011;58101;48.658;2.328;2022-10-12T16:20:24;10.35;;;3.13;;
70549;SDS011;58101;48.658;2.328;2022-10-12T16:22:51;9.88;;;3.03;;
70549;SDS011;58101;48.658;2.328;2022-10-12T16:25:17;10.18;;;3.60;;
70549;SDS011;58101;48.658;2.328;2022-10-12T16:27:46;10.98;;;3.17;;
70549;SDS011;58101;48.658;2.328;2022-10-12T16:30:12;11.15;;;3.38;;
70549;SDS011;58101;48.658;2.328;2022-10-12T16:32:38;10.35;;;3.40;;
70549;SDS011;58101;48.658;2.328;2022-10-12T16:35:04;11.07;;;3.30;;
70549;SDS011;58101;48.658;2.328;2022-10-12T16:37:30;10.45;;;3.10;;
70549;SDS011;58101;48.658;2.328;2022-10-12T16:39:57;9.55;;;3.00;;
70549;SDS011;58101;48.658;2.328;2022-10-12T16:42:23;10.27;;;3.15;;
70549;SDS011;58101;48.658;2.328;2022-10-12T16:44:48;9.65;;;3.35;;
70549;SDS011;58101;48.658;2.328;2022-10-12T16:47:14;9.52;;;2.95;;
70549;SDS011;58101;48.658;2.328;2022-10-12T16:49:40;10.60;;;3.40;;
70549;SDS011;58101;48.658;2.328;2022-10-12T16:52:06;10.95;;;3.08;;
70549;SDS011;58101;48.658;2.328;2022-10-12T16:54:32;11.10;;;3.22;;
70549;SDS011;58101;48.658;2.328;2022-10-12T16:56:58;10.55;;;3.50;;
70549;SDS011;58101;48.658;2.328;2022-10-12T16:59:23;11.88;;;3.38;;
70549;SDS011;58101;48.658;2.328;2022-10-12T17:01:49;8.30;;;2.95;;
70549;SDS011;58101;48.658;2.328;2022-10-12T17:04:15;11.73;;;3.15;;
70549;SDS011;58101;48.658;2.328;2022-10-12T17:06:41;11.32;;;3.38;;
70549;SDS011;58101;48.658;2.328;2022-10-12T17:09:07;9.68;;;3.42;;
70549;SDS011;58101;48.658;2.328;2022-10-12T17:11:33;10.27;;;3.70;;
70549;SDS011;58101;48.658;2.328;2022-10-12T17:14:04;10.13;;;4.15;;
70549;SDS011;58101;48.658;2.328;2022-10-12T17:16:31;12.68;;;4.25;;
70549;SDS011;58101;48.658;2.328;2022-10-12T17:19:11;12.50;;;4.10;;
70549;SDS011;58101;48.658;2.328;2022-10-12T17:21:45;11.50;;;4.20;;
70549;SDS011;58101;48.658;2.328;2022-10-12T17:24:12;13.52;;;4.90;;
70549;SDS011;58101;48.658;2.328;2022-10-12T17:26:39;12.40;;;4.65;;